• Maroc
    » Khouribga 7 | 16

Prévisions d’aérodrome (TAF court)



Document sans nom

Les prévisions d’aérodrome (TAF) sont établies par des stations météorologiques des aérodromes marocaines les plus important. Ces prévisions sont communiquées aux autorités de la navigation aérienne toutes les trois heures pour les TAF d’une durée de validité de moins de 12 heures, et toutes les six heures pour les TAF d’une durée comprise entre 12 heures et 24 heures.

Ces prévisions sont communiquées selon les normes aux autorités de la navigation aérienne afin d'être utilisées pour la planification des vols.

 

Exemple de message prévisions d’aérodrome(TAF) :

 

FCMC40 GMMC 220800
TAF GMFM 220800Z 221019 16003KT CAVOK TEMPO 1216 SCT020 SCT100=
TAF GMMP 220800Z 221019 10005KT 3000 BR SCT010 TEMPO 1118 04008KT
8000 SCT013 SCT016=

 

 

Maroc Météo - Aéroport Casa-Anfa, Face Préfecture Hay Hassani - B.P. 8106 Casa Oasis - Casablanca - Maroc
Tél. (212) 5 22.65.49.00/65.48.00 - Fax : (212) 5 22.91.37.97 - e-mail : contact@marocmeteo.ma - Webmaster: DMN/DSI/SI


Copyright © 2011 Maroc Météo. Tous drois réservés. Conditions légales | Termes d'utilisation